sensor_id;sensor_type;location;lat;lon;timestamp;pressure;altitude;pressure_sealevel;temperature;humidity
26563;BME280;14217;50.986;5.826;2022-10-16T00:00:40;100471.84;;;21.61;49.24
26563;BME280;14217;50.986;5.826;2022-10-16T00:05:43;100465.31;;;21.52;49.11
26563;BME280;14217;50.986;5.826;2022-10-16T00:10:45;100456.75;;;21.47;49.37
26563;BME280;14217;50.986;5.826;2022-10-16T00:15:47;100456.75;;;21.47;49.31
26563;BME280;14217;50.986;5.826;2022-10-16T00:20:49;100451.03;;;21.53;49.41
26563;BME280;14217;50.986;5.826;2022-10-16T00:25:56;100444.56;;;21.57;49.39
26563;BME280;14217;50.986;5.826;2022-10-16T00:30:58;100443.03;;;21.53;49.07
26563;BME280;14217;50.986;5.826;2022-10-16T00:36:01;100429.81;;;21.51;49.08
26563;BME280;14217;50.986;5.826;2022-10-16T00:41:09;100433.69;;;21.60;48.81
26563;BME280;14217;50.986;5.826;2022-10-16T00:46:29;100454.94;;;21.47;49.49
26563;BME280;14217;50.986;5.826;2022-10-16T00:51:41;100458.66;;;21.59;49.40
26563;BME280;14217;50.986;5.826;2022-10-16T00:56:44;100457.59;;;21.62;48.76
26563;BME280;14217;50.986;5.826;2022-10-16T01:01:47;100476.34;;;21.60;49.12
26563;BME280;14217;50.986;5.826;2022-10-16T01:07:56;100469.31;;;21.59;49.12
26563;BME280;14217;50.986;5.826;2022-10-16T01:12:34;100470.84;;;21.63;48.78
26563;BME280;14217;50.986;5.826;2022-10-16T01:22:57;100464.75;;;21.61;48.95
26563;BME280;14217;50.986;5.826;2022-10-16T01:28:05;100491.66;;;21.57;49.23
26563;BME280;14217;50.986;5.826;2022-10-16T01:33:17;100482.72;;;21.58;49.12
26563;BME280;14217;50.986;5.826;2022-10-16T01:38:32;100480.06;;;21.58;49.18
26563;BME280;14217;50.986;5.826;2022-10-16T01:44:02;100481.13;;;21.55;48.89
26563;BME280;14217;50.986;5.826;2022-10-16T01:49:06;100490.66;;;21.59;49.11
26563;BME280;14217;50.986;5.826;2022-10-16T01:54:12;100497.50;;;21.63;49.03
26563;BME280;14217;50.986;5.826;2022-10-16T01:59:18;100488.75;;;21.61;48.69
26563;BME280;14217;50.986;5.826;2022-10-16T02:04:34;100485.50;;;21.56;49.12
26563;BME280;14217;50.986;5.826;2022-10-16T02:09:38;100495.97;;;21.59;49.05
26563;BME280;14217;50.986;5.826;2022-10-16T02:14:40;100488.75;;;21.61;48.80
26563;BME280;14217;50.986;5.826;2022-10-16T02:19:44;100481.28;;;21.66;48.91
26563;BME280;14217;50.986;5.826;2022-10-16T02:25:02;100486.84;;;21.63;48.78
26563;BME280;14217;50.986;5.826;2022-10-16T02:30:36;100480.06;;;21.58;48.83
26563;BME280;14217;50.986;5.826;2022-10-16T02:35:41;100490.25;;;21.65;48.76
26563;BME280;14217;50.986;5.826;2022-10-16T02:40:44;100491.94;;;21.66;48.53
26563;BME280;14217;50.986;5.826;2022-10-16T02:45:46;100503.59;;;21.65;48.74
26563;BME280;14217;50.986;5.826;2022-10-16T02:50:48;100489.19;;;21.68;48.38
26563;BME280;14217;50.986;5.826;2022-10-16T02:55:50;100495.75;;;21.62;48.92
26563;BME280;14217;50.986;5.826;2022-10-16T03:00:52;100484.16;;;21.63;48.90
26563;BME280;14217;50.986;5.826;2022-10-16T03:05:54;100488.63;;;21.63;48.78
26563;BME280;14217;50.986;5.826;2022-10-16T03:10:56;100488.28;;;21.55;48.81
26563;BME280;14217;50.986;5.826;2022-10-16T03:15:58;100497.28;;;21.52;48.86
26563;BME280;14217;50.986;5.826;2022-10-16T03:21:00;100496.63;;;21.63;48.82
26563;BME280;14217;50.986;5.826;2022-10-16T03:26:01;100498.53;;;21.61;48.90
26563;BME280;14217;50.986;5.826;2022-10-16T03:31:03;100505.38;;;21.65;48.71
26563;BME280;14217;50.986;5.826;2022-10-16T03:36:05;100506.44;;;21.62;48.84
26563;BME280;14217;50.986;5.826;2022-10-16T03:41:08;100514.72;;;21.58;48.64
26563;BME280;14217;50.986;5.826;2022-10-16T03:46:10;100524.41;;;21.59;48.83
26563;BME280;14217;50.986;5.826;2022-10-16T03:51:11;100513.50;;;21.63;48.83
26563;BME280;14217;50.986;5.826;2022-10-16T03:56:13;100512.91;;;21.58;48.95
26563;BME280;14217;50.986;5.826;2022-10-16T04:01:15;100524.25;;;21.62;48.68
26563;BME280;14217;50.986;5.826;2022-10-16T04:06:17;100534.91;;;21.62;48.92
26563;BME280;14217;50.986;5.826;2022-10-16T04:11:19;100538.25;;;21.65;48.41
26563;BME280;14217;50.986;5.826;2022-10-16T04:16:21;100533.84;;;21.64;48.80
26563;BME280;14217;50.986;5.826;2022-10-16T04:21:23;100545.19;;;21.54;49.11
26563;BME280;14217;50.986;5.826;2022-10-16T04:26:25;100545.66;;;21.60;48.61
26563;BME280;14217;50.986;5.826;2022-10-16T04:31:27;100575.19;;;21.57;49.00
26563;BME280;14217;50.986;5.826;2022-10-16T04:36:29;100563.47;;;21.60;48.72
26563;BME280;14217;50.986;5.826;2022-10-16T04:41:31;100566.31;;;21.57;48.84
26563;BME280;14217;50.986;5.826;2022-10-16T04:46:33;100561.66;;;21.60;48.84
26563;BME280;14217;50.986;5.826;2022-10-16T04:51:34;100584.81;;;21.60;48.73
26563;BME280;14217;50.986;5.826;2022-10-16T04:56:37;100568.03;;;21.58;48.77
26563;BME280;14217;50.986;5.826;2022-10-16T05:01:44;100579.38;;;21.61;48.64
26563;BME280;14217;50.986;5.826;2022-10-16T05:06:47;100585.09;;;21.55;48.74
26563;BME280;14217;50.986;5.826;2022-10-16T05:11:49;100582.97;;;21.60;48.84
26563;BME280;14217;50.986;5.826;2022-10-16T05:16:51;100590.81;;;21.63;48.45
26563;BME280;14217;50.986;5.826;2022-10-16T05:21:53;100596.22;;;21.62;48.48
26563;BME280;14217;50.986;5.826;2022-10-16T05:26:55;100611.38;;;21.61;48.49
26563;BME280;14217;50.986;5.826;2022-10-16T05:31:57;100606.69;;;21.65;48.57
26563;BME280;14217;50.986;5.826;2022-10-16T05:36:59;100606.13;;;21.60;48.43
26563;BME280;14217;50.986;5.826;2022-10-16T05:42:01;100617.28;;;21.66;48.48
26563;BME280;14217;50.986;5.826;2022-10-16T05:47:02;100636.13;;;21.63;48.63
26563;BME280;14217;50.986;5.826;2022-10-16T05:52:04;100625.56;;;21.62;48.52
26563;BME280;14217;50.986;5.826;2022-10-16T05:57:06;100632.50;;;21.64;48.47
26563;BME280;14217;50.986;5.826;2022-10-16T06:02:12;100654.41;;;21.55;48.83
26563;BME280;14217;50.986;5.826;2022-10-16T06:07:14;100661.28;;;21.59;48.76
26563;BME280;14217;50.986;5.826;2022-10-16T06:12:16;100657.84;;;21.57;48.52
26563;BME280;14217;50.986;5.826;2022-10-16T06:17:18;100674.47;;;21.61;48.78
26563;BME280;14217;50.986;5.826;2022-10-16T06:22:20;100693.44;;;21.56;48.56
26563;BME280;14217;50.986;5.826;2022-10-16T06:27:22;100692.28;;;21.60;48.43
26563;BME280;14217;50.986;5.826;2022-10-16T06:32:24;100696.00;;;21.58;48.87
26563;BME280;14217;50.986;5.826;2022-10-16T06:37:26;100701.25;;;21.59;48.58
26563;BME280;14217;50.986;5.826;2022-10-16T06:42:28;100715.72;;;21.55;48.93
26563;BME280;14217;50.986;5.826;2022-10-16T06:47:30;100712.84;;;21.58;48.67
26563;BME280;14217;50.986;5.826;2022-10-16T06:52:33;100719.63;;;21.64;48.30
26563;BME280;14217;50.986;5.826;2022-10-16T06:57:35;100733.41;;;21.56;48.49
26563;BME280;14217;50.986;5.826;2022-10-16T07:02:37;100745.63;;;21.60;49.04
26563;BME280;14217;50.986;5.826;2022-10-16T07:07:39;100756.41;;;21.43;50.43
26563;BME280;14217;50.986;5.826;2022-10-16T07:12:41;100759.09;;;21.43;50.81
26563;BME280;14217;50.986;5.826;2022-10-16T07:17:43;100759.16;;;21.57;51.06
26563;BME280;14217;50.986;5.826;2022-10-16T07:22:45;100762.75;;;21.56;50.83
26563;BME280;14217;50.986;5.826;2022-10-16T07:27:46;100776.22;;;21.69;50.23
26563;BME280;14217;50.986;5.826;2022-10-16T07:32:48;100786.34;;;21.78;49.94
26563;BME280;14217;50.986;5.826;2022-10-16T07:37:50;100794.44;;;21.46;50.61
26563;BME280;14217;50.986;5.826;2022-10-16T07:42:52;100802.81;;;21.39;50.69
26563;BME280;14217;50.986;5.826;2022-10-16T07:47:54;100814.78;;;21.31;50.27
26563;BME280;14217;50.986;5.826;2022-10-16T07:52:55;100816.50;;;21.32;50.23
26563;BME280;14217;50.986;5.826;2022-10-16T07:57:57;100819.19;;;21.48;49.86
26563;BME280;14217;50.986;5.826;2022-10-16T08:02:59;100830.34;;;21.23;50.09
26563;BME280;14217;50.986;5.826;2022-10-16T08:08:02;100839.13;;;21.25;50.19
26563;BME280;14217;50.986;5.826;2022-10-16T08:13:04;100846.50;;;21.20;50.67
26563;BME280;14217;50.986;5.826;2022-10-16T08:18:26;100863.25;;;21.22;50.27
26563;BME280;14217;50.986;5.826;2022-10-16T08:23:28;100866.78;;;21.39;50.18
26563;BME280;14217;50.986;5.826;2022-10-16T08:28:30;100873.94;;;21.54;49.67
26563;BME280;14217;50.986;5.826;2022-10-16T08:33:31;100881.94;;;21.54;49.59
26563;BME280;14217;50.986;5.826;2022-10-16T08:38:33;100881.09;;;21.54;49.31
26563;BME280;14217;50.986;5.826;2022-10-16T08:49:11;100901.06;;;21.29;49.51
26563;BME280;14217;50.986;5.826;2022-10-16T08:59:26;100913.97;;;21.21;49.52
26563;BME280;14217;50.986;5.826;2022-10-16T09:15:53;100920.28;;;21.36;49.51
26563;BME280;14217;50.986;5.826;2022-10-16T09:21:18;100933.97;;;21.45;49.22
26563;BME280;14217;50.986;5.826;2022-10-16T09:26:21;100934.69;;;21.49;49.08
26563;BME280;14217;50.986;5.826;2022-10-16T09:31:43;100940.59;;;21.54;48.77
26563;BME280;14217;50.986;5.826;2022-10-16T09:36:46;100933.06;;;21.46;49.17
26563;BME280;14217;50.986;5.826;2022-10-16T09:41:48;100929.81;;;21.40;49.23
26563;BME280;14217;50.986;5.826;2022-10-16T09:47:02;100923.56;;;21.57;48.53
26563;BME280;14217;50.986;5.826;2022-10-16T09:52:13;100927.72;;;21.46;49.24
26563;BME280;14217;50.986;5.826;2022-10-16T09:57:15;100925.28;;;21.42;49.02
26563;BME280;14217;50.986;5.826;2022-10-16T10:02:19;100926.41;;;21.54;49.06
26563;BME280;14217;50.986;5.826;2022-10-16T10:07:26;100934.22;;;21.57;49.41
26563;BME280;14217;50.986;5.826;2022-10-16T10:12:30;100931.94;;;21.50;49.42
26563;BME280;14217;50.986;5.826;2022-10-16T10:17:49;100919.88;;;21.43;49.22
26563;BME280;14217;50.986;5.826;2022-10-16T10:22:51;100935.13;;;21.40;49.09
26563;BME280;14217;50.986;5.826;2022-10-16T10:33:42;100939.16;;;21.31;48.29
26563;BME280;14217;50.986;5.826;2022-10-16T10:50:07;100966.47;;;21.52;50.33
26563;BME280;14217;50.986;5.826;2022-10-16T10:55:23;100963.03;;;21.50;49.47
26563;BME280;14217;50.986;5.826;2022-10-16T11:05:43;100954.53;;;21.43;49.62
26563;BME280;14217;50.986;5.826;2022-10-16T11:10:53;100957.13;;;21.45;49.20
26563;BME280;14217;50.986;5.826;2022-10-16T11:15:59;100965.41;;;21.39;48.85
26563;BME280;14217;50.986;5.826;2022-10-16T11:21:07;100960.16;;;21.37;49.14
26563;BME280;14217;50.986;5.826;2022-10-16T11:26:14;100961.00;;;21.38;48.72
26563;BME280;14217;50.986;5.826;2022-10-16T11:41:52;100963.69;;;21.38;48.65
26563;BME280;14217;50.986;5.826;2022-10-16T11:47:24;100956.44;;;21.57;48.20
26563;BME280;14217;50.986;5.826;2022-10-16T12:04:19;100950.94;;;21.44;48.50
26563;BME280;14217;50.986;5.826;2022-10-16T12:09:28;100954.53;;;21.43;48.29
26563;BME280;14217;50.986;5.826;2022-10-16T12:14:37;100965.47;;;21.55;48.10
26563;BME280;14217;50.986;5.826;2022-10-16T12:25:21;100964.59;;;21.54;48.44
26563;BME280;14217;50.986;5.826;2022-10-16T12:30:26;100966.34;;;21.55;48.44
26563;BME280;14217;50.986;5.826;2022-10-16T12:35:42;100970.25;;;21.48;48.49
26563;BME280;14217;50.986;5.826;2022-10-16T12:41:03;100967.53;;;21.49;48.49
26563;BME280;14217;50.986;5.826;2022-10-16T12:46:23;100957.56;;;21.53;48.15
26563;BME280;14217;50.986;5.826;2022-10-16T13:23:31;100962.47;;;21.77;49.07
26563;BME280;14217;50.986;5.826;2022-10-16T13:28:37;100965.91;;;21.79;48.94
26563;BME280;14217;50.986;5.826;2022-10-16T13:33:41;100955.22;;;21.79;48.88
26563;BME280;14217;50.986;5.826;2022-10-16T13:38:45;100983.53;;;21.81;48.76
26563;BME280;14217;50.986;5.826;2022-10-16T13:43:50;100970.38;;;21.78;48.67
26563;BME280;14217;50.986;5.826;2022-10-16T13:49:00;100974.66;;;21.65;49.14
26563;BME280;14217;50.986;5.826;2022-10-16T13:54:02;100973.31;;;21.74;48.93
26563;BME280;14217;50.986;5.826;2022-10-16T13:59:07;100989.97;;;21.77;48.80
26563;BME280;14217;50.986;5.826;2022-10-16T14:04:23;100973.81;;;21.80;48.47
26563;BME280;14217;50.986;5.826;2022-10-16T14:09:29;100973.22;;;21.75;48.63
26563;BME280;14217;50.986;5.826;2022-10-16T14:14:43;100981.72;;;21.82;48.79
26563;BME280;14217;50.986;5.826;2022-10-16T14:19:47;100983.53;;;21.81;48.79
26563;BME280;14217;50.986;5.826;2022-10-16T14:24:57;100987.66;;;21.87;48.56
26563;BME280;14217;50.986;5.826;2022-10-16T14:35:43;100967.97;;;21.74;48.93
26563;BME280;14217;50.986;5.826;2022-10-16T14:40:48;100968.31;;;21.83;48.61
26563;BME280;14217;50.986;5.826;2022-10-16T14:45:55;100962.47;;;21.77;49.04
26563;BME280;14217;50.986;5.826;2022-10-16T14:50:58;100945.84;;;21.87;48.58
26563;BME280;14217;50.986;5.826;2022-10-16T14:56:07;100945.16;;;21.84;48.98
26563;BME280;14217;50.986;5.826;2022-10-16T15:01:10;100947.72;;;21.85;48.75
26563;BME280;14217;50.986;5.826;2022-10-16T15:06:14;100944.63;;;21.77;49.15
26563;BME280;14217;50.986;5.826;2022-10-16T15:11:18;100947.06;;;21.66;49.17
26563;BME280;14217;50.986;5.826;2022-10-16T15:16:20;100949.19;;;21.75;49.29
26563;BME280;14217;50.986;5.826;2022-10-16T15:21:27;100958.59;;;21.66;49.20
26563;BME280;14217;50.986;5.826;2022-10-16T15:26:29;100952.56;;;21.79;49.20
26563;BME280;14217;50.986;5.826;2022-10-16T15:31:32;100943.38;;;21.84;48.86
26563;BME280;14217;50.986;5.826;2022-10-16T15:36:36;100960.91;;;21.72;49.07
26563;BME280;14217;50.986;5.826;2022-10-16T15:41:39;100954.47;;;21.77;49.20
26563;BME280;14217;50.986;5.826;2022-10-16T15:47:00;100941.66;;;21.67;49.60
26563;BME280;14217;50.986;5.826;2022-10-16T15:52:03;100945.31;;;21.65;49.78
26563;BME280;14217;50.986;5.826;2022-10-16T15:57:05;100933.72;;;21.66;49.74
26563;BME280;14217;50.986;5.826;2022-10-16T16:02:08;100932.25;;;21.60;50.12
26563;BME280;14217;50.986;5.826;2022-10-16T16:07:11;100929.44;;;21.63;50.21
26563;BME280;14217;50.986;5.826;2022-10-16T16:12:12;100925.81;;;21.64;50.25
26563;BME280;14217;50.986;5.826;2022-10-16T16:17:14;100932.69;;;21.68;50.11
26563;BME280;14217;50.986;5.826;2022-10-16T16:22:17;100945.09;;;21.69;49.97
26563;BME280;14217;50.986;5.826;2022-10-16T16:27:19;100943.88;;;21.75;49.75
26563;BME280;14217;50.986;5.826;2022-10-16T16:32:21;100939.56;;;21.72;49.94
26563;BME280;14217;50.986;5.826;2022-10-16T16:37:23;100938.72;;;21.72;50.38
26563;BME280;14217;50.986;5.826;2022-10-16T16:42:26;100932.78;;;21.67;51.01
26563;BME280;14217;50.986;5.826;2022-10-16T16:47:28;100932.78;;;21.67;51.07
26563;BME280;14217;50.986;5.826;2022-10-16T16:52:31;100944.97;;;21.71;51.06
26563;BME280;14217;50.986;5.826;2022-10-16T16:57:33;100946.97;;;21.67;51.77
26563;BME280;14217;50.986;5.826;2022-10-16T17:02:35;100955.47;;;21.58;51.70
26563;BME280;14217;50.986;5.826;2022-10-16T17:07:37;100957.47;;;21.70;51.28
26563;BME280;14217;50.986;5.826;2022-10-16T17:12:42;100946.03;;;21.68;51.10
26563;BME280;14217;50.986;5.826;2022-10-16T17:17:44;100955.66;;;21.55;51.33
26563;BME280;14217;50.986;5.826;2022-10-16T17:22:46;100960.47;;;21.64;51.36
26563;BME280;14217;50.986;5.826;2022-10-16T17:27:48;100948.69;;;21.68;51.01
26563;BME280;14217;50.986;5.826;2022-10-16T17:32:50;100947.84;;;21.68;51.14
26563;BME280;14217;50.986;5.826;2022-10-16T17:37:52;100941.66;;;21.67;51.20
26563;BME280;14217;50.986;5.826;2022-10-16T17:42:54;100943.78;;;21.61;51.41
26563;BME280;14217;50.986;5.826;2022-10-16T17:47:59;100956.44;;;21.73;50.82
26563;BME280;14217;50.986;5.826;2022-10-16T17:53:01;100957.47;;;21.70;50.98
26563;BME280;14217;50.986;5.826;2022-10-16T17:58:03;100971.00;;;21.67;50.95
26563;BME280;14217;50.986;5.826;2022-10-16T18:03:05;101008.22;;;21.69;50.79
26563;BME280;14217;50.986;5.826;2022-10-16T18:08:08;101034.22;;;21.65;51.02
26563;BME280;14217;50.986;5.826;2022-10-16T18:13:10;101045.41;;;21.72;50.63
26563;BME280;14217;50.986;5.826;2022-10-16T18:18:12;101045.31;;;21.74;50.37
26563;BME280;14217;50.986;5.826;2022-10-16T18:23:15;101059.41;;;21.76;50.22
26563;BME280;14217;50.986;5.826;2022-10-16T18:28:17;101062.06;;;21.76;50.48
26563;BME280;14217;50.986;5.826;2022-10-16T18:33:19;101065.50;;;21.78;50.58
26563;BME280;14217;50.986;5.826;2022-10-16T18:38:21;101062.97;;;21.76;50.31
26563;BME280;14217;50.986;5.826;2022-10-16T18:43:23;101052.09;;;21.63;50.50
26563;BME280;14217;50.986;5.826;2022-10-16T18:48:25;101050.28;;;21.80;50.35
26563;BME280;14217;50.986;5.826;2022-10-16T18:53:27;101044.78;;;21.67;50.44
26563;BME280;14217;50.986;5.826;2022-10-16T18:58:50;101049.19;;;21.68;50.38
26563;BME280;14217;50.986;5.826;2022-10-16T19:03:57;101036.34;;;21.75;50.08
26563;BME280;14217;50.986;5.826;2022-10-16T19:08:59;101050.66;;;21.74;50.40
26563;BME280;14217;50.986;5.826;2022-10-16T19:14:01;101046.06;;;21.76;50.02
26563;BME280;14217;50.986;5.826;2022-10-16T19:19:06;101059.31;;;21.77;50.20
26563;BME280;14217;50.986;5.826;2022-10-16T19:24:11;101057.88;;;21.71;50.17
26563;BME280;14217;50.986;5.826;2022-10-16T19:29:14;101058.66;;;21.74;50.35
26563;BME280;14217;50.986;5.826;2022-10-16T19:34:16;101065.78;;;21.73;50.19
26563;BME280;14217;50.986;5.826;2022-10-16T19:39:18;101062.97;;;21.76;49.90
26563;BME280;14217;50.986;5.826;2022-10-16T19:44:40;101056.59;;;21.79;49.81
26563;BME280;14217;50.986;5.826;2022-10-16T19:49:42;101056.75;;;21.76;50.20
26563;BME280;14217;50.986;5.826;2022-10-16T19:54:44;101057.78;;;21.73;50.11
26563;BME280;14217;50.986;5.826;2022-10-16T19:59:46;101048.91;;;21.72;50.22
26563;BME280;14217;50.986;5.826;2022-10-16T20:04:48;101055.88;;;21.75;50.06
26563;BME280;14217;50.986;5.826;2022-10-16T20:09:49;101048.50;;;21.80;50.03
26563;BME280;14217;50.986;5.826;2022-10-16T20:14:51;101052.81;;;21.83;49.70
26563;BME280;14217;50.986;5.826;2022-10-16T20:19:53;101048.50;;;21.80;50.05
26563;BME280;14217;50.986;5.826;2022-10-16T20:24:55;101046.75;;;21.79;49.67
26563;BME280;14217;50.986;5.826;2022-10-16T20:29:57;101035.75;;;21.69;50.50
26563;BME280;14217;50.986;5.826;2022-10-16T20:34:59;101029.72;;;21.82;50.06
26563;BME280;14217;50.986;5.826;2022-10-16T20:40:08;101028.94;;;21.80;49.92
26563;BME280;14217;50.986;5.826;2022-10-16T20:45:10;101021.31;;;21.74;50.39
26563;BME280;14217;50.986;5.826;2022-10-16T20:50:12;101017.75;;;21.73;50.29
26563;BME280;14217;50.986;5.826;2022-10-16T20:55:17;101004.63;;;21.70;49.96
26563;BME280;14217;50.986;5.826;2022-10-16T21:00:19;101012.53;;;21.87;49.63
26563;BME280;14217;50.986;5.826;2022-10-16T21:05:21;101013.66;;;21.83;49.78
26563;BME280;14217;50.986;5.826;2022-10-16T21:10:23;101010.81;;;21.86;49.27
26563;BME280;14217;50.986;5.826;2022-10-16T21:15:24;101015.97;;;21.74;49.82
26563;BME280;14217;50.986;5.826;2022-10-16T21:20:26;101015.72;;;21.78;49.33
26563;BME280;14217;50.986;5.826;2022-10-16T21:25:28;101017.94;;;21.86;49.24
26563;BME280;14217;50.986;5.826;2022-10-16T21:30:31;101020.09;;;21.79;49.21
26563;BME280;14217;50.986;5.826;2022-10-16T21:35:33;101017.78;;;21.89;49.07
26563;BME280;14217;50.986;5.826;2022-10-16T21:40:35;101009.34;;;21.81;49.12
26563;BME280;14217;50.986;5.826;2022-10-16T21:45:36;101002.53;;;21.75;49.20
26563;BME280;14217;50.986;5.826;2022-10-16T21:50:38;101000.38;;;21.82;48.94
26563;BME280;14217;50.986;5.826;2022-10-16T21:55:43;100997.06;;;21.78;49.17
26563;BME280;14217;50.986;5.826;2022-10-16T22:00:45;100999.72;;;21.78;49.01
26563;BME280;14217;50.986;5.826;2022-10-16T22:05:47;101002.19;;;21.81;49.22
26563;BME280;14217;50.986;5.826;2022-10-16T22:10:49;100991.53;;;21.81;48.95
26563;BME280;14217;50.986;5.826;2022-10-16T22:15:51;100990.84;;;21.78;49.25
26563;BME280;14217;50.986;5.826;2022-10-16T22:20:53;100999.28;;;21.86;49.01
26563;BME280;14217;50.986;5.826;2022-10-16T22:26:03;100992.38;;;21.82;48.83
26563;BME280;14217;50.986;5.826;2022-10-16T22:31:08;100992.06;;;21.72;49.16
26563;BME280;14217;50.986;5.826;2022-10-16T22:36:12;100992.38;;;21.82;49.02
26563;BME280;14217;50.986;5.826;2022-10-16T22:41:14;100999.38;;;21.84;48.80
26563;BME280;14217;50.986;5.826;2022-10-16T22:46:19;100997.81;;;21.80;48.95
26563;BME280;14217;50.986;5.826;2022-10-16T22:51:22;100994.38;;;21.78;48.83
26563;BME280;14217;50.986;5.826;2022-10-16T22:56:24;100991.72;;;21.78;48.87
26563;BME280;14217;50.986;5.826;2022-10-16T23:01:33;100990.84;;;21.78;48.79
26563;BME280;14217;50.986;5.826;2022-10-16T23:06:36;100993.41;;;21.79;49.02
26563;BME280;14217;50.986;5.826;2022-10-16T23:11:38;100997.72;;;21.82;48.94
26563;BME280;14217;50.986;5.826;2022-10-16T23:16:40;100996.09;;;21.79;48.96
26563;BME280;14217;50.986;5.826;2022-10-16T23:21:41;100992.22;;;21.69;49.12
26563;BME280;14217;50.986;5.826;2022-10-16T23:26:43;101003.75;;;21.85;48.55
26563;BME280;14217;50.986;5.826;2022-10-16T23:31:45;101007.81;;;21.77;49.09
26563;BME280;14217;50.986;5.826;2022-10-16T23:36:48;101007.63;;;21.80;48.62
26563;BME280;14217;50.986;5.826;2022-10-16T23:41:50;100998.75;;;21.79;48.94
26563;BME280;14217;50.986;5.826;2022-10-16T23:46:52;101003.75;;;21.85;48.45
26563;BME280;14217;50.986;5.826;2022-10-16T23:51:54;100999.03;;;21.90;48.33
26563;BME280;14217;50.986;5.826;2022-10-16T23:56:56;101002.19;;;21.81;48.50
